sensor_id;sensor_type;location;lat;lon;timestamp;temperature;humidity
11385;DHT22;5747;56.748;13.882;2023-07-22T00:02:08;8.30;99.90
11385;DHT22;5747;56.748;13.882;2023-07-22T00:04:36;8.30;99.90
11385;DHT22;5747;56.748;13.882;2023-07-22T00:07:06;8.30;99.90
11385;DHT22;5747;56.748;13.882;2023-07-22T00:09:34;8.30;99.90
11385;DHT22;5747;56.748;13.882;2023-07-22T00:12:03;8.30;99.90
11385;DHT22;5747;56.748;13.882;2023-07-22T00:14:31;8.50;99.90
11385;DHT22;5747;56.748;13.882;2023-07-22T00:16:59;8.40;99.90
11385;DHT22;5747;56.748;13.882;2023-07-22T00:19:27;8.40;99.90
11385;DHT22;5747;56.748;13.882;2023-07-22T00:21:55;8.50;99.90
11385;DHT22;5747;56.748;13.882;2023-07-22T00:24:25;8.40;99.90
11385;DHT22;5747;56.748;13.882;2023-07-22T00:26:53;8.50;99.90
11385;DHT22;5747;56.748;13.882;2023-07-22T00:29:21;8.50;99.90
11385;DHT22;5747;56.748;13.882;2023-07-22T00:31:49;8.50;99.90
11385;DHT22;5747;56.748;13.882;2023-07-22T00:34:17;8.40;99.90
11385;DHT22;5747;56.748;13.882;2023-07-22T00:36:46;8.40;99.90
11385;DHT22;5747;56.748;13.882;2023-07-22T00:39:14;8.40;99.90
11385;DHT22;5747;56.748;13.882;2023-07-22T00:41:44;8.60;99.90
11385;DHT22;5747;56.748;13.882;2023-07-22T00:44:12;8.60;99.90
11385;DHT22;5747;56.748;13.882;2023-07-22T00:46:40;8.80;99.90
11385;DHT22;5747;56.748;13.882;2023-07-22T00:49:09;8.90;99.90
11385;DHT22;5747;56.748;13.882;2023-07-22T00:51:38;9.00;99.90
11385;DHT22;5747;56.748;13.882;2023-07-22T00:54:06;8.90;99.90
11385;DHT22;5747;56.748;13.882;2023-07-22T00:56:36;8.80;99.90
11385;DHT22;5747;56.748;13.882;2023-07-22T00:59:06;8.90;99.90
11385;DHT22;5747;56.748;13.882;2023-07-22T01:01:34;8.80;99.90
11385;DHT22;5747;56.748;13.882;2023-07-22T01:04:02;9.00;99.90
11385;DHT22;5747;56.748;13.882;2023-07-22T01:06:32;8.90;99.90
11385;DHT22;5747;56.748;13.882;2023-07-22T01:09:00;8.80;99.90
11385;DHT22;5747;56.748;13.882;2023-07-22T01:11:29;9.00;99.90
11385;DHT22;5747;56.748;13.882;2023-07-22T01:13:57;9.00;99.90
11385;DHT22;5747;56.748;13.882;2023-07-22T01:16:28;9.00;99.90
11385;DHT22;5747;56.748;13.882;2023-07-22T01:18:57;9.20;99.90
11385;DHT22;5747;56.748;13.882;2023-07-22T01:21:25;9.20;99.90
11385;DHT22;5747;56.748;13.882;2023-07-22T01:23:56;9.20;99.90
11385;DHT22;5747;56.748;13.882;2023-07-22T01:26:24;9.10;99.90
11385;DHT22;5747;56.748;13.882;2023-07-22T01:29:02;9.10;99.90
11385;DHT22;5747;56.748;13.882;2023-07-22T01:31:30;9.20;99.90
11385;DHT22;5747;56.748;13.882;2023-07-22T01:33:58;9.10;99.90
11385;DHT22;5747;56.748;13.882;2023-07-22T01:36:26;8.90;99.90
11385;DHT22;5747;56.748;13.882;2023-07-22T01:38:56;8.90;99.90
11385;DHT22;5747;56.748;13.882;2023-07-22T01:41:24;8.80;99.90
11385;DHT22;5747;56.748;13.882;2023-07-22T01:43:52;8.70;99.90
11385;DHT22;5747;56.748;13.882;2023-07-22T01:46:20;8.70;99.90
11385;DHT22;5747;56.748;13.882;2023-07-22T01:48:48;8.80;99.90
11385;DHT22;5747;56.748;13.882;2023-07-22T01:51:17;9.00;99.90
11385;DHT22;5747;56.748;13.882;2023-07-22T01:53:45;9.10;99.90
11385;DHT22;5747;56.748;13.882;2023-07-22T01:56:14;9.20;99.90
11385;DHT22;5747;56.748;13.882;2023-07-22T01:58:43;9.20;99.90
11385;DHT22;5747;56.748;13.882;2023-07-22T02:01:11;9.20;99.90
11385;DHT22;5747;56.748;13.882;2023-07-22T02:03:41;9.30;99.90
11385;DHT22;5747;56.748;13.882;2023-07-22T02:06:09;9.40;99.90
11385;DHT22;5747;56.748;13.882;2023-07-22T02:08:37;9.50;99.90
11385;DHT22;5747;56.748;13.882;2023-07-22T02:11:07;9.50;99.90
11385;DHT22;5747;56.748;13.882;2023-07-22T02:13:38;9.50;99.90
11385;DHT22;5747;56.748;13.882;2023-07-22T02:16:06;9.50;99.90
11385;DHT22;5747;56.748;13.882;2023-07-22T02:18:38;9.60;99.90
11385;DHT22;5747;56.748;13.882;2023-07-22T02:21:06;9.70;99.90
11385;DHT22;5747;56.748;13.882;2023-07-22T02:23:35;9.80;99.90
11385;DHT22;5747;56.748;13.882;2023-07-22T02:26:03;9.70;99.90
11385;DHT22;5747;56.748;13.882;2023-07-22T02:28:31;9.60;99.90
11385;DHT22;5747;56.748;13.882;2023-07-22T02:31:02;9.60;99.90
11385;DHT22;5747;56.748;13.882;2023-07-22T02:33:33;9.60;99.90
11385;DHT22;5747;56.748;13.882;2023-07-22T02:36:02;9.70;99.90
11385;DHT22;5747;56.748;13.882;2023-07-22T02:38:30;9.80;99.90
11385;DHT22;5747;56.748;13.882;2023-07-22T02:41:01;9.80;99.90
11385;DHT22;5747;56.748;13.882;2023-07-22T02:43:30;9.80;99.90
11385;DHT22;5747;56.748;13.882;2023-07-22T02:46:01;9.70;99.90
11385;DHT22;5747;56.748;13.882;2023-07-22T02:48:31;9.80;99.90
11385;DHT22;5747;56.748;13.882;2023-07-22T02:51:03;9.80;99.90
11385;DHT22;5747;56.748;13.882;2023-07-22T02:53:32;9.70;99.90
11385;DHT22;5747;56.748;13.882;2023-07-22T02:56:00;9.70;99.90
11385;DHT22;5747;56.748;13.882;2023-07-22T02:58:28;9.80;99.90
11385;DHT22;5747;56.748;13.882;2023-07-22T03:00:57;9.80;99.90
11385;DHT22;5747;56.748;13.882;2023-07-22T03:03:26;9.80;99.90
11385;DHT22;5747;56.748;13.882;2023-07-22T03:05:55;9.90;99.90
11385;DHT22;5747;56.748;13.882;2023-07-22T03:08:24;9.70;99.90
11385;DHT22;5747;56.748;13.882;2023-07-22T03:10:52;9.50;99.90
11385;DHT22;5747;56.748;13.882;2023-07-22T03:13:21;9.40;99.90
11385;DHT22;5747;56.748;13.882;2023-07-22T03:15:49;9.20;99.90
11385;DHT22;5747;56.748;13.882;2023-07-22T03:18:17;9.20;99.90
11385;DHT22;5747;56.748;13.882;2023-07-22T03:20:46;9.40;99.90
11385;DHT22;5747;56.748;13.882;2023-07-22T03:23:16;9.40;99.90
11385;DHT22;5747;56.748;13.882;2023-07-22T03:25:44;9.30;99.90
11385;DHT22;5747;56.748;13.882;2023-07-22T03:28:12;9.20;99.90
11385;DHT22;5747;56.748;13.882;2023-07-22T03:30:41;9.30;99.90
11385;DHT22;5747;56.748;13.882;2023-07-22T03:33:09;9.30;99.90
11385;DHT22;5747;56.748;13.882;2023-07-22T03:35:38;9.30;99.90
11385;DHT22;5747;56.748;13.882;2023-07-22T03:38:08;9.30;99.90
11385;DHT22;5747;56.748;13.882;2023-07-22T03:40:37;9.40;99.90
11385;DHT22;5747;56.748;13.882;2023-07-22T03:43:05;9.50;99.90
11385;DHT22;5747;56.748;13.882;2023-07-22T03:45:34;9.50;99.90
11385;DHT22;5747;56.748;13.882;2023-07-22T03:48:03;9.50;99.90
11385;DHT22;5747;56.748;13.882;2023-07-22T03:50:31;9.40;99.90
11385;DHT22;5747;56.748;13.882;2023-07-22T03:52:59;9.50;99.90
11385;DHT22;5747;56.748;13.882;2023-07-22T03:55:27;9.70;99.90
11385;DHT22;5747;56.748;13.882;2023-07-22T03:57:56;9.80;99.90
11385;DHT22;5747;56.748;13.882;2023-07-22T04:00:25;9.90;99.90
11385;DHT22;5747;56.748;13.882;2023-07-22T04:02:53;10.00;99.90
11385;DHT22;5747;56.748;13.882;2023-07-22T04:05:21;10.10;99.90
11385;DHT22;5747;56.748;13.882;2023-07-22T04:07:49;10.10;99.90
11385;DHT22;5747;56.748;13.882;2023-07-22T04:10:17;10.10;99.90
11385;DHT22;5747;56.748;13.882;2023-07-22T04:12:45;9.90;99.90
11385;DHT22;5747;56.748;13.882;2023-07-22T04:15:15;9.90;99.90
11385;DHT22;5747;56.748;13.882;2023-07-22T04:17:44;10.00;99.90
11385;DHT22;5747;56.748;13.882;2023-07-22T04:20:13;10.10;99.90
11385;DHT22;5747;56.748;13.882;2023-07-22T04:22:41;10.30;99.90
11385;DHT22;5747;56.748;13.882;2023-07-22T04:25:10;10.40;99.90
11385;DHT22;5747;56.748;13.882;2023-07-22T04:27:38;10.50;99.90
11385;DHT22;5747;56.748;13.882;2023-07-22T04:30:07;10.70;99.90
11385;DHT22;5747;56.748;13.882;2023-07-22T04:32:37;11.20;99.90
11385;DHT22;5747;56.748;13.882;2023-07-22T04:35:07;11.80;99.90
11385;DHT22;5747;56.748;13.882;2023-07-22T04:37:36;12.30;99.90
11385;DHT22;5747;56.748;13.882;2023-07-22T04:40:06;12.80;99.90
11385;DHT22;5747;56.748;13.882;2023-07-22T04:42:38;13.10;99.90
11385;DHT22;5747;56.748;13.882;2023-07-22T04:45:07;13.80;99.90
11385;DHT22;5747;56.748;13.882;2023-07-22T04:47:38;14.50;99.90
11385;DHT22;5747;56.748;13.882;2023-07-22T04:50:07;15.00;99.90
11385;DHT22;5747;56.748;13.882;2023-07-22T04:52:36;15.10;99.90
11385;DHT22;5747;56.748;13.882;2023-07-22T04:55:05;15.30;99.90
11385;DHT22;5747;56.748;13.882;2023-07-22T04:57:36;15.40;99.90
11385;DHT22;5747;56.748;13.882;2023-07-22T05:00:05;15.50;99.90
11385;DHT22;5747;56.748;13.882;2023-07-22T05:02:35;15.60;99.90
11385;DHT22;5747;56.748;13.882;2023-07-22T05:05:05;15.60;99.90
11385;DHT22;5747;56.748;13.882;2023-07-22T05:07:34;15.40;99.90
11385;DHT22;5747;56.748;13.882;2023-07-22T05:10:03;15.10;99.90
11385;DHT22;5747;56.748;13.882;2023-07-22T05:12:31;14.80;99.90
11385;DHT22;5747;56.748;13.882;2023-07-22T05:14:59;14.50;99.90
11385;DHT22;5747;56.748;13.882;2023-07-22T05:17:27;14.30;99.90
11385;DHT22;5747;56.748;13.882;2023-07-22T05:19:56;14.10;99.90
11385;DHT22;5747;56.748;13.882;2023-07-22T05:22:25;13.90;99.90
11385;DHT22;5747;56.748;13.882;2023-07-22T05:24:54;14.10;99.90
11385;DHT22;5747;56.748;13.882;2023-07-22T05:27:22;14.50;99.90
11385;DHT22;5747;56.748;13.882;2023-07-22T05:29:51;15.00;99.90
11385;DHT22;5747;56.748;13.882;2023-07-22T05:32:19;14.50;99.90
11385;DHT22;5747;56.748;13.882;2023-07-22T05:34:59;14.40;99.90
11385;DHT22;5747;56.748;13.882;2023-07-22T05:37:29;15.30;99.90
11385;DHT22;5747;56.748;13.882;2023-07-22T05:39:58;15.60;99.90
11385;DHT22;5747;56.748;13.882;2023-07-22T05:42:26;15.60;99.90
11385;DHT22;5747;56.748;13.882;2023-07-22T05:44:56;15.50;99.90
11385;DHT22;5747;56.748;13.882;2023-07-22T05:47:25;15.30;99.90
11385;DHT22;5747;56.748;13.882;2023-07-22T05:49:53;15.30;99.90
11385;DHT22;5747;56.748;13.882;2023-07-22T05:52:21;15.20;99.90
11385;DHT22;5747;56.748;13.882;2023-07-22T05:54:50;15.10;99.90
11385;DHT22;5747;56.748;13.882;2023-07-22T05:57:18;15.00;99.90
11385;DHT22;5747;56.748;13.882;2023-07-22T05:59:47;15.00;99.90
11385;DHT22;5747;56.748;13.882;2023-07-22T06:02:38;14.90;99.90
11385;DHT22;5747;56.748;13.882;2023-07-22T06:05:06;15.00;99.90
11385;DHT22;5747;56.748;13.882;2023-07-22T06:07:35;15.00;99.90
11385;DHT22;5747;56.748;13.882;2023-07-22T06:10:06;15.10;99.90
11385;DHT22;5747;56.748;13.882;2023-07-22T06:12:35;14.80;99.90
11385;DHT22;5747;56.748;13.882;2023-07-22T06:15:04;14.80;99.90
11385;DHT22;5747;56.748;13.882;2023-07-22T06:17:32;14.90;99.90
11385;DHT22;5747;56.748;13.882;2023-07-22T06:20:00;14.70;99.90
11385;DHT22;5747;56.748;13.882;2023-07-22T06:22:29;14.50;99.90
11385;DHT22;5747;56.748;13.882;2023-07-22T06:24:57;14.10;99.90
11385;DHT22;5747;56.748;13.882;2023-07-22T06:27:27;13.80;99.90
11385;DHT22;5747;56.748;13.882;2023-07-22T06:29:55;13.90;99.90
11385;DHT22;5747;56.748;13.882;2023-07-22T06:32:23;14.30;99.90
11385;DHT22;5747;56.748;13.882;2023-07-22T06:34:51;14.30;99.90
11385;DHT22;5747;56.748;13.882;2023-07-22T06:37:19;14.50;99.90
11385;DHT22;5747;56.748;13.882;2023-07-22T06:39:47;14.10;99.90
11385;DHT22;5747;56.748;13.882;2023-07-22T06:42:16;13.90;99.90
11385;DHT22;5747;56.748;13.882;2023-07-22T06:44:45;14.20;99.90
11385;DHT22;5747;56.748;13.882;2023-07-22T06:47:13;14.50;99.90
11385;DHT22;5747;56.748;13.882;2023-07-22T06:49:42;14.40;99.90
11385;DHT22;5747;56.748;13.882;2023-07-22T06:52:13;14.20;99.90
11385;DHT22;5747;56.748;13.882;2023-07-22T06:54:42;14.10;99.90
11385;DHT22;5747;56.748;13.882;2023-07-22T06:57:10;14.10;99.90
11385;DHT22;5747;56.748;13.882;2023-07-22T06:59:38;13.90;99.90
11385;DHT22;5747;56.748;13.882;2023-07-22T07:02:08;13.90;99.90
11385;DHT22;5747;56.748;13.882;2023-07-22T07:04:36;13.90;99.90
11385;DHT22;5747;56.748;13.882;2023-07-22T07:07:04;13.90;99.90
11385;DHT22;5747;56.748;13.882;2023-07-22T07:09:34;14.10;99.90
11385;DHT22;5747;56.748;13.882;2023-07-22T07:12:03;14.00;99.90
11385;DHT22;5747;56.748;13.882;2023-07-22T07:14:32;13.70;99.90
11385;DHT22;5747;56.748;13.882;2023-07-22T07:17:01;13.90;99.90
11385;DHT22;5747;56.748;13.882;2023-07-22T07:19:30;14.00;99.90
11385;DHT22;5747;56.748;13.882;2023-07-22T07:21:58;14.10;99.90
11385;DHT22;5747;56.748;13.882;2023-07-22T07:24:26;14.00;99.90
11385;DHT22;5747;56.748;13.882;2023-07-22T07:26:55;14.00;99.90
11385;DHT22;5747;56.748;13.882;2023-07-22T07:29:23;14.10;99.90
11385;DHT22;5747;56.748;13.882;2023-07-22T07:32:11;14.20;99.90
11385;DHT22;5747;56.748;13.882;2023-07-22T07:34:41;14.50;99.90
11385;DHT22;5747;56.748;13.882;2023-07-22T07:37:09;14.80;99.90
11385;DHT22;5747;56.748;13.882;2023-07-22T07:39:37;15.00;99.90
11385;DHT22;5747;56.748;13.882;2023-07-22T07:42:06;15.20;99.90
11385;DHT22;5747;56.748;13.882;2023-07-22T07:44:34;15.20;99.90
11385;DHT22;5747;56.748;13.882;2023-07-22T07:47:02;15.20;99.90
11385;DHT22;5747;56.748;13.882;2023-07-22T07:49:30;15.20;99.90
11385;DHT22;5747;56.748;13.882;2023-07-22T07:51:59;15.30;99.90
11385;DHT22;5747;56.748;13.882;2023-07-22T07:54:27;15.40;99.90
11385;DHT22;5747;56.748;13.882;2023-07-22T07:56:59;15.60;99.90
11385;DHT22;5747;56.748;13.882;2023-07-22T07:59:27;15.30;99.90
11385;DHT22;5747;56.748;13.882;2023-07-22T08:01:55;15.30;99.90
11385;DHT22;5747;56.748;13.882;2023-07-22T08:04:23;14.90;99.90
11385;DHT22;5747;56.748;13.882;2023-07-22T08:06:51;14.80;99.90
11385;DHT22;5747;56.748;13.882;2023-07-22T08:09:21;14.70;99.90
11385;DHT22;5747;56.748;13.882;2023-07-22T08:11:49;15.00;99.90
11385;DHT22;5747;56.748;13.882;2023-07-22T08:14:17;15.50;99.90
11385;DHT22;5747;56.748;13.882;2023-07-22T08:16:45;15.60;99.90
11385;DHT22;5747;56.748;13.882;2023-07-22T08:19:14;15.40;99.90
11385;DHT22;5747;56.748;13.882;2023-07-22T08:21:42;15.40;99.90
11385;DHT22;5747;56.748;13.882;2023-07-22T08:24:10;15.60;99.90
11385;DHT22;5747;56.748;13.882;2023-07-22T08:26:39;15.80;99.90
11385;DHT22;5747;56.748;13.882;2023-07-22T08:29:07;16.20;99.90
11385;DHT22;5747;56.748;13.882;2023-07-22T08:31:36;16.40;99.90
11385;DHT22;5747;56.748;13.882;2023-07-22T08:34:04;16.40;99.90
11385;DHT22;5747;56.748;13.882;2023-07-22T08:36:32;15.00;99.90
11385;DHT22;5747;56.748;13.882;2023-07-22T08:39:00;13.90;99.90
11385;DHT22;5747;56.748;13.882;2023-07-22T08:41:29;12.90;99.90
11385;DHT22;5747;56.748;13.882;2023-07-22T08:44:00;12.80;99.90
11385;DHT22;5747;56.748;13.882;2023-07-22T08:46:29;12.70;99.90
11385;DHT22;5747;56.748;13.882;2023-07-22T08:48:59;13.00;99.90
11385;DHT22;5747;56.748;13.882;2023-07-22T08:51:28;12.90;99.90
11385;DHT22;5747;56.748;13.882;2023-07-22T08:53:58;12.90;99.90
11385;DHT22;5747;56.748;13.882;2023-07-22T08:56:38;13.20;99.90
11385;DHT22;5747;56.748;13.882;2023-07-22T08:59:08;13.50;99.90
11385;DHT22;5747;56.748;13.882;2023-07-22T09:01:37;13.90;99.90
11385;DHT22;5747;56.748;13.882;2023-07-22T09:04:07;14.10;99.90
11385;DHT22;5747;56.748;13.882;2023-07-22T09:06:35;14.30;99.90
11385;DHT22;5747;56.748;13.882;2023-07-22T09:09:03;14.30;99.90
11385;DHT22;5747;56.748;13.882;2023-07-22T09:11:35;14.00;99.90
11385;DHT22;5747;56.748;13.882;2023-07-22T09:14:03;14.00;99.90
11385;DHT22;5747;56.748;13.882;2023-07-22T09:16:34;14.00;99.90
11385;DHT22;5747;56.748;13.882;2023-07-22T09:19:03;14.20;99.90
11385;DHT22;5747;56.748;13.882;2023-07-22T09:21:32;14.30;99.90
11385;DHT22;5747;56.748;13.882;2023-07-22T09:24:20;14.50;99.90
11385;DHT22;5747;56.748;13.882;2023-07-22T09:26:49;14.70;99.90
11385;DHT22;5747;56.748;13.882;2023-07-22T09:29:17;14.60;99.90
11385;DHT22;5747;56.748;13.882;2023-07-22T09:31:50;14.60;99.90
11385;DHT22;5747;56.748;13.882;2023-07-22T09:34:19;14.70;99.90
11385;DHT22;5747;56.748;13.882;2023-07-22T09:36:51;14.90;99.90
11385;DHT22;5747;56.748;13.882;2023-07-22T09:39:20;15.30;99.90
11385;DHT22;5747;56.748;13.882;2023-07-22T09:41:48;15.10;99.90
11385;DHT22;5747;56.748;13.882;2023-07-22T09:44:16;15.10;99.90
11385;DHT22;5747;56.748;13.882;2023-07-22T09:46:48;15.20;99.90
11385;DHT22;5747;56.748;13.882;2023-07-22T09:49:18;15.20;99.90
11385;DHT22;5747;56.748;13.882;2023-07-22T09:51:47;14.80;99.90
11385;DHT22;5747;56.748;13.882;2023-07-22T09:54:28;14.30;99.90
11385;DHT22;5747;56.748;13.882;2023-07-22T09:56:58;14.00;99.90
11385;DHT22;5747;56.748;13.882;2023-07-22T09:59:29;14.40;99.90
11385;DHT22;5747;56.748;13.882;2023-07-22T10:01:59;14.40;99.90
11385;DHT22;5747;56.748;13.882;2023-07-22T10:04:33;14.50;99.90
11385;DHT22;5747;56.748;13.882;2023-07-22T10:07:03;14.90;99.90
11385;DHT22;5747;56.748;13.882;2023-07-22T10:09:34;15.30;99.90
11385;DHT22;5747;56.748;13.882;2023-07-22T10:12:04;15.20;99.90
11385;DHT22;5747;56.748;13.882;2023-07-22T10:14:32;15.40;99.90
11385;DHT22;5747;56.748;13.882;2023-07-22T10:17:06;15.60;99.90
11385;DHT22;5747;56.748;13.882;2023-07-22T10:19:36;15.40;99.90
11385;DHT22;5747;56.748;13.882;2023-07-22T10:22:05;15.30;99.90
11385;DHT22;5747;56.748;13.882;2023-07-22T10:24:35;15.10;99.90
11385;DHT22;5747;56.748;13.882;2023-07-22T10:27:04;15.00;99.90
11385;DHT22;5747;56.748;13.882;2023-07-22T10:29:34;14.80;99.90
11385;DHT22;5747;56.748;13.882;2023-07-22T10:32:04;14.70;99.90
11385;DHT22;5747;56.748;13.882;2023-07-22T10:34:32;14.30;99.90
11385;DHT22;5747;56.748;13.882;2023-07-22T10:37:01;14.30;99.90
11385;DHT22;5747;56.748;13.882;2023-07-22T10:39:31;14.40;99.90
11385;DHT22;5747;56.748;13.882;2023-07-22T10:42:02;14.30;99.90
11385;DHT22;5747;56.748;13.882;2023-07-22T10:44:32;14.50;99.90
11385;DHT22;5747;56.748;13.882;2023-07-22T10:47:00;14.60;99.90
11385;DHT22;5747;56.748;13.882;2023-07-22T10:49:44;15.10;99.90
11385;DHT22;5747;56.748;13.882;2023-07-22T10:52:13;15.70;99.90
11385;DHT22;5747;56.748;13.882;2023-07-22T10:54:41;16.00;99.90
11385;DHT22;5747;56.748;13.882;2023-07-22T10:57:23;16.40;99.90
11385;DHT22;5747;56.748;13.882;2023-07-22T10:59:52;16.70;99.90
11385;DHT22;5747;56.748;13.882;2023-07-22T11:02:24;17.00;99.90
11385;DHT22;5747;56.748;13.882;2023-07-22T11:04:56;17.20;99.90
11385;DHT22;5747;56.748;13.882;2023-07-22T11:07:32;17.00;99.90
11385;DHT22;5747;56.748;13.882;2023-07-22T11:10:17;16.80;99.90
11385;DHT22;5747;56.748;13.882;2023-07-22T11:12:46;16.10;99.90
11385;DHT22;5747;56.748;13.882;2023-07-22T11:15:16;15.90;99.90
11385;DHT22;5747;56.748;13.882;2023-07-22T11:17:45;16.30;99.90
11385;DHT22;5747;56.748;13.882;2023-07-22T11:20:14;16.50;99.90
11385;DHT22;5747;56.748;13.882;2023-07-22T11:22:42;16.40;99.90
11385;DHT22;5747;56.748;13.882;2023-07-22T11:25:17;16.30;99.90
11385;DHT22;5747;56.748;13.882;2023-07-22T11:27:45;16.20;99.90
11385;DHT22;5747;56.748;13.882;2023-07-22T11:30:14;16.40;99.90
11385;DHT22;5747;56.748;13.882;2023-07-22T11:32:42;16.40;99.90
11385;DHT22;5747;56.748;13.882;2023-07-22T11:35:15;16.20;99.90
11385;DHT22;5747;56.748;13.882;2023-07-22T11:37:44;16.20;99.90
11385;DHT22;5747;56.748;13.882;2023-07-22T11:40:12;16.20;99.90
11385;DHT22;5747;56.748;13.882;2023-07-22T11:42:41;16.20;99.90
11385;DHT22;5747;56.748;13.882;2023-07-22T11:45:12;16.30;99.90
11385;DHT22;5747;56.748;13.882;2023-07-22T11:47:42;16.00;99.90
11385;DHT22;5747;56.748;13.882;2023-07-22T11:50:11;15.90;99.90
11385;DHT22;5747;56.748;13.882;2023-07-22T11:52:41;16.10;99.90
11385;DHT22;5747;56.748;13.882;2023-07-22T11:55:11;16.30;99.90
11385;DHT22;5747;56.748;13.882;2023-07-22T11:57:52;16.10;99.90
11385;DHT22;5747;56.748;13.882;2023-07-22T12:00:20;16.30;99.90
11385;DHT22;5747;56.748;13.882;2023-07-22T12:02:48;16.30;99.90
11385;DHT22;5747;56.748;13.882;2023-07-22T12:05:21;16.50;99.90
11385;DHT22;5747;56.748;13.882;2023-07-22T12:07:51;16.40;99.90
11385;DHT22;5747;56.748;13.882;2023-07-22T12:10:19;16.60;99.90
11385;DHT22;5747;56.748;13.882;2023-07-22T12:12:47;16.40;99.90
11385;DHT22;5747;56.748;13.882;2023-07-22T12:15:18;16.30;99.90
11385;DHT22;5747;56.748;13.882;2023-07-22T12:17:48;16.50;99.90
11385;DHT22;5747;56.748;13.882;2023-07-22T12:20:17;16.20;99.90
11385;DHT22;5747;56.748;13.882;2023-07-22T12:22:45;16.60;99.90
11385;DHT22;5747;56.748;13.882;2023-07-22T12:25:15;16.60;99.90
11385;DHT22;5747;56.748;13.882;2023-07-22T12:27:43;17.00;99.90
11385;DHT22;5747;56.748;13.882;2023-07-22T12:30:12;17.60;99.90
11385;DHT22;5747;56.748;13.882;2023-07-22T12:32:42;17.90;99.90
11385;DHT22;5747;56.748;13.882;2023-07-22T12:35:11;17.70;99.90
11385;DHT22;5747;56.748;13.882;2023-07-22T12:37:40;17.70;99.90
11385;DHT22;5747;56.748;13.882;2023-07-22T12:40:10;17.60;99.90
11385;DHT22;5747;56.748;13.882;2023-07-22T12:42:41;17.90;99.90
11385;DHT22;5747;56.748;13.882;2023-07-22T12:45:09;18.00;99.90
11385;DHT22;5747;56.748;13.882;2023-07-22T12:47:37;18.20;99.90
11385;DHT22;5747;56.748;13.882;2023-07-22T12:50:07;18.30;99.90
11385;DHT22;5747;56.748;13.882;2023-07-22T12:52:35;18.20;99.90
11385;DHT22;5747;56.748;13.882;2023-07-22T12:55:04;18.20;99.90
11385;DHT22;5747;56.748;13.882;2023-07-22T12:57:32;17.70;99.90
11385;DHT22;5747;56.748;13.882;2023-07-22T13:00:02;17.10;99.90
11385;DHT22;5747;56.748;13.882;2023-07-22T13:02:32;16.90;99.90
11385;DHT22;5747;56.748;13.882;2023-07-22T13:05:01;16.60;99.90
11385;DHT22;5747;56.748;13.882;2023-07-22T13:07:29;16.60;99.90
11385;DHT22;5747;56.748;13.882;2023-07-22T13:09:57;16.30;99.90
11385;DHT22;5747;56.748;13.882;2023-07-22T13:12:27;16.20;99.90
11385;DHT22;5747;56.748;13.882;2023-07-22T13:14:55;16.10;99.90
11385;DHT22;5747;56.748;13.882;2023-07-22T13:17:25;16.40;99.90
11385;DHT22;5747;56.748;13.882;2023-07-22T13:19:53;16.70;99.90
11385;DHT22;5747;56.748;13.882;2023-07-22T13:22:21;16.80;99.90
11385;DHT22;5747;56.748;13.882;2023-07-22T13:24:49;17.10;99.90
11385;DHT22;5747;56.748;13.882;2023-07-22T13:27:18;17.10;99.90
11385;DHT22;5747;56.748;13.882;2023-07-22T13:29:46;17.10;99.90
11385;DHT22;5747;56.748;13.882;2023-07-22T13:32:14;16.90;99.90
11385;DHT22;5747;56.748;13.882;2023-07-22T13:34:44;16.80;99.90
11385;DHT22;5747;56.748;13.882;2023-07-22T13:37:12;17.00;99.90
11385;DHT22;5747;56.748;13.882;2023-07-22T13:39:40;17.10;99.90
11385;DHT22;5747;56.748;13.882;2023-07-22T13:42:08;17.10;99.90
11385;DHT22;5747;56.748;13.882;2023-07-22T13:44:36;17.20;99.90
11385;DHT22;5747;56.748;13.882;2023-07-22T13:47:06;17.00;99.90
11385;DHT22;5747;56.748;13.882;2023-07-22T13:49:34;16.80;99.90
11385;DHT22;5747;56.748;13.882;2023-07-22T13:52:04;16.70;99.90
11385;DHT22;5747;56.748;13.882;2023-07-22T13:54:32;16.50;99.90
11385;DHT22;5747;56.748;13.882;2023-07-22T13:57:00;16.50;99.90
11385;DHT22;5747;56.748;13.882;2023-07-22T13:59:29;16.70;99.90
11385;DHT22;5747;56.748;13.882;2023-07-22T14:01:57;17.00;99.90
11385;DHT22;5747;56.748;13.882;2023-07-22T14:04:25;17.10;99.90
11385;DHT22;5747;56.748;13.882;2023-07-22T14:06:53;17.40;99.90
11385;DHT22;5747;56.748;13.882;2023-07-22T14:09:22;17.60;99.90
11385;DHT22;5747;56.748;13.882;2023-07-22T14:11:51;17.80;99.90
11385;DHT22;5747;56.748;13.882;2023-07-22T14:14:19;18.00;99.90
11385;DHT22;5747;56.748;13.882;2023-07-22T14:16:47;17.90;99.90
11385;DHT22;5747;56.748;13.882;2023-07-22T14:19:15;17.90;99.90
11385;DHT22;5747;56.748;13.882;2023-07-22T14:21:43;18.00;99.90
11385;DHT22;5747;56.748;13.882;2023-07-22T14:24:11;18.10;99.90
11385;DHT22;5747;56.748;13.882;2023-07-22T14:26:41;18.20;99.90
11385;DHT22;5747;56.748;13.882;2023-07-22T14:29:09;18.00;99.90
11385;DHT22;5747;56.748;13.882;2023-07-22T14:31:37;17.90;99.90
11385;DHT22;5747;56.748;13.882;2023-07-22T14:34:05;17.80;99.90
11385;DHT22;5747;56.748;13.882;2023-07-22T14:36:33;18.10;99.90
11385;DHT22;5747;56.748;13.882;2023-07-22T14:39:01;18.30;99.90
11385;DHT22;5747;56.748;13.882;2023-07-22T14:41:29;18.30;99.90
11385;DHT22;5747;56.748;13.882;2023-07-22T14:43:59;18.30;99.90
11385;DHT22;5747;56.748;13.882;2023-07-22T14:46:27;18.20;99.90
11385;DHT22;5747;56.748;13.882;2023-07-22T14:48:56;18.10;99.90
11385;DHT22;5747;56.748;13.882;2023-07-22T14:51:24;17.60;99.90
11385;DHT22;5747;56.748;13.882;2023-07-22T14:53:52;17.30;99.90
11385;DHT22;5747;56.748;13.882;2023-07-22T14:56:21;16.80;99.90
11385;DHT22;5747;56.748;13.882;2023-07-22T14:58:49;16.60;99.90
11385;DHT22;5747;56.748;13.882;2023-07-22T15:01:20;16.10;99.90
11385;DHT22;5747;56.748;13.882;2023-07-22T15:03:49;15.90;99.90
11385;DHT22;5747;56.748;13.882;2023-07-22T15:06:17;15.50;99.90
11385;DHT22;5747;56.748;13.882;2023-07-22T15:08:45;15.00;99.90
11385;DHT22;5747;56.748;13.882;2023-07-22T15:11:13;14.80;99.90
11385;DHT22;5747;56.748;13.882;2023-07-22T15:13:42;14.80;99.90
11385;DHT22;5747;56.748;13.882;2023-07-22T15:16:10;14.90;99.90
11385;DHT22;5747;56.748;13.882;2023-07-22T15:18:40;15.00;99.90
11385;DHT22;5747;56.748;13.882;2023-07-22T15:21:08;15.20;99.90
11385;DHT22;5747;56.748;13.882;2023-07-22T15:23:36;15.40;99.90
11385;DHT22;5747;56.748;13.882;2023-07-22T15:26:04;15.30;99.90
11385;DHT22;5747;56.748;13.882;2023-07-22T15:28:32;15.50;99.90
11385;DHT22;5747;56.748;13.882;2023-07-22T15:31:01;15.70;99.90
11385;DHT22;5747;56.748;13.882;2023-07-22T15:33:29;16.00;99.90
11385;DHT22;5747;56.748;13.882;2023-07-22T15:35:58;16.00;99.90
11385;DHT22;5747;56.748;13.882;2023-07-22T15:38:26;16.10;99.90
11385;DHT22;5747;56.748;13.882;2023-07-22T15:40:55;16.00;99.90
11385;DHT22;5747;56.748;13.882;2023-07-22T15:43:24;15.90;99.90
11385;DHT22;5747;56.748;13.882;2023-07-22T15:45:52;15.80;99.90
11385;DHT22;5747;56.748;13.882;2023-07-22T15:48:20;15.80;99.90